Time;durP1;ratioP1;P1;durP2;ratioP2;P2;SDS_P1;SDS_P2;PMS_P1;PMS_P2;Temp;Humidity;BMP_temperature;BMP_pressure;BME280_temperature;BME280_humidity;BME280_pressure;Samples;Min_cycle;Max_cycle;Signal;HPM_P1;HPM_P2
2021/05/28 00:00:00;;;;;;;11.23;6.90;;;7.30;99.90;;;;;;5082456;28;20222;-73
2021/05/28 00:02:28;;;;;;;12.07;6.50;;;7.30;99.90;;;;;;5089902;28;20197;-72
2021/05/28 00:04:56;;;;;;;10.30;7.20;;;7.30;99.90;;;;;;5088649;28;20286;-73
2021/05/28 00:07:24;;;;;;;9.63;6.80;;;7.20;99.90;;;;;;5080652;28;20318;-73
2021/05/28 00:09:52;;;;;;;8.50;6.93;;;7.20;99.90;;;;;;5090028;28;20202;-73
2021/05/28 00:12:20;;;;;;;13.90;7.30;;;7.20;99.90;;;;;;5072185;28;20692;-73
2021/05/28 00:14:48;;;;;;;11.67;6.70;;;7.10;99.90;;;;;;5085120;28;20187;-73
2021/05/28 00:17:16;;;;;;;8.97;6.50;;;7.10;99.90;;;;;;5089099;28;20281;-73
2021/05/28 00:19:44;;;;;;;15.30;7.27;;;7.10;99.90;;;;;;5079338;28;20617;-73
2021/05/28 00:22:12;;;;;;;13.13;7.67;;;7.10;99.90;;;;;;5081929;28;20291;-73
2021/05/28 00:24:44;;;;;;;9.90;7.07;;;7.10;99.90;;;;;;5083542;28;20314;-73
2021/05/28 00:27:12;;;;;;;12.03;6.80;;;7.10;99.90;;;;;;5088056;28;20577;-73
2021/05/28 00:29:41;;;;;;;15.43;7.53;;;7.00;99.90;;;;;;5093896;28;20292;-73
2021/05/28 00:32:09;;;;;;;9.30;7.53;;;7.00;99.90;;;;;;5084052;28;20231;-74
2021/05/28 00:34:37;;;;;;;10.47;7.23;;;7.00;99.90;;;;;;5083644;28;20274;-72
2021/05/28 00:37:04;;;;;;;9.47;7.30;;;6.90;99.90;;;;;;5079685;28;20770;-73
2021/05/28 00:39:32;;;;;;;14.57;8.17;;;6.90;99.90;;;;;;5091347;28;20761;-73
2021/05/28 00:42:00;;;;;;;12.37;8.30;;;6.90;99.90;;;;;;5087680;28;20178;-73
2021/05/28 00:44:29;;;;;;;14.50;8.40;;;6.90;99.90;;;;;;5099055;28;20195;-73
2021/05/28 00:46:57;;;;;;;11.87;8.13;;;6.80;99.90;;;;;;5082323;28;20191;-73
2021/05/28 00:49:25;;;;;;;13.03;8.37;;;6.80;99.90;;;;;;5089589;28;20231;-72
2021/05/28 00:51:53;;;;;;;14.57;9.40;;;6.70;99.90;;;;;;5085116;28;20196;-73
2021/05/28 00:54:21;;;;;;;14.40;9.70;;;6.70;99.90;;;;;;5080373;28;20738;-73
2021/05/28 00:56:50;;;;;;;14.87;9.20;;;6.70;99.90;;;;;;5084820;28;20261;-73
2021/05/28 00:59:18;;;;;;;15.93;9.60;;;6.70;99.90;;;;;;5086468;28;20654;-73
2021/05/28 01:01:47;;;;;;;15.00;9.43;;;6.60;99.90;;;;;;5086264;28;20249;-73
2021/05/28 01:04:16;;;;;;;14.67;9.03;;;6.60;99.90;;;;;;5088878;28;20615;-73
2021/05/28 01:06:44;;;;;;;17.67;9.97;;;6.50;99.90;;;;;;5083108;28;20230;-73
2021/05/28 01:09:13;;;;;;;18.50;10.00;;;6.50;99.90;;;;;;5083892;28;20191;-73
2021/05/28 01:11:41;;;;;;;19.17;9.83;;;6.60;99.90;;;;;;5088371;28;20213;-73
2021/05/28 01:14:09;;;;;;;13.97;9.60;;;6.60;99.90;;;;;;5084843;28;20218;-72
2021/05/28 01:16:37;;;;;;;15.50;8.87;;;6.60;99.90;;;;;;5087493;28;20283;-73
2021/05/28 01:19:06;;;;;;;12.60;8.60;;;6.60;99.90;;;;;;5088229;28;20274;-73
2021/05/28 01:21:35;;;;;;;12.07;8.53;;;6.50;99.90;;;;;;5085448;28;20282;-74
2021/05/28 01:24:05;;;;;;;8.87;7.50;;;6.50;99.90;;;;;;5084119;28;20226;-72
2021/05/28 01:26:33;;;;;;;11.83;8.30;;;6.50;99.90;;;;;;5079964;28;20266;-72
2021/05/28 01:29:00;;;;;;;8.90;7.53;;;6.40;99.90;;;;;;5087855;28;20188;-73
2021/05/28 01:31:29;;;;;;;12.23;8.30;;;6.40;99.90;;;;;;5088370;28;20223;-73
2021/05/28 01:33:57;;;;;;;13.47;8.47;;;6.30;99.90;;;;;;5093328;28;20208;-73
2021/05/28 01:36:25;;;;;;;13.90;8.57;;;6.30;99.90;;;;;;5077791;28;20278;-73
2021/05/28 01:38:53;;;;;;;13.77;9.37;;;6.20;99.90;;;;;;5084025;28;20223;-73
2021/05/28 01:41:27;;;;;;;14.50;8.23;;;6.20;99.90;;;;;;5086452;28;20231;-73
2021/05/28 01:43:55;;;;;;;12.30;8.03;;;6.20;99.90;;;;;;5066291;28;20184;-73
2021/05/28 01:46:23;;;;;;;16.27;7.83;;;6.20;99.90;;;;;;5083106;28;20229;-73
2021/05/28 01:48:51;;;;;;;11.80;7.37;;;6.20;99.90;;;;;;5096837;28;20214;-73
2021/05/28 01:51:19;;;;;;;8.60;6.97;;;6.10;99.90;;;;;;5089284;28;20249;-73
2021/05/28 01:53:47;;;;;;;9.20;7.57;;;6.10;99.90;;;;;;5081342;28;20265;-73
2021/05/28 01:56:15;;;;;;;15.50;8.47;;;6.10;99.90;;;;;;5085360;28;20650;-73
2021/05/28 01:58:44;;;;;;;14.53;9.63;;;6.10;99.90;;;;;;5084917;28;20241;-72
2021/05/28 02:01:12;;;;;;;19.60;10.87;;;6.10;99.90;;;;;;5085166;28;20191;-73
2021/05/28 02:03:40;;;;;;;15.03;10.60;;;6.10;99.90;;;;;;5087374;28;20222;-71
2021/05/28 02:06:08;;;;;;;14.33;9.63;;;6.10;99.90;;;;;;5084658;28;20774;-73
2021/05/28 02:08:36;;;;;;;11.87;9.20;;;6.20;99.90;;;;;;5086441;28;20282;-73
2021/05/28 02:11:04;;;;;;;16.47;9.60;;;6.10;99.90;;;;;;5083844;28;20290;-73
2021/05/28 02:13:33;;;;;;;13.10;9.67;;;6.10;99.90;;;;;;5085201;28;20231;-73
2021/05/28 02:16:03;;;;;;;15.73;9.77;;;6.10;99.90;;;;;;5078997;28;20258;-73
2021/05/28 02:18:31;;;;;;;16.30;8.93;;;6.00;99.90;;;;;;5085487;28;20607;-73
2021/05/28 02:20:58;;;;;;;13.93;8.50;;;5.90;99.90;;;;;;5083468;28;20206;-73
2021/05/28 02:23:26;;;;;;;9.53;7.83;;;5.90;99.90;;;;;;5084445;28;20226;-73
2021/05/28 02:25:54;;;;;;;10.40;8.03;;;5.90;99.90;;;;;;5084010;28;20279;-73
2021/05/28 02:28:22;;;;;;;12.17;8.47;;;5.80;99.90;;;;;;5082922;28;20291;-72
2021/05/28 02:30:50;;;;;;;12.90;8.27;;;5.70;99.90;;;;;;5090035;28;20191;-72
2021/05/28 02:33:19;;;;;;;10.93;8.17;;;5.70;99.90;;;;;;5087339;28;20310;-73
2021/05/28 02:35:46;;;;;;;12.10;8.17;;;5.70;99.90;;;;;;5085262;28;20190;-73
2021/05/28 02:38:14;;;;;;;13.47;9.47;;;5.70;99.90;;;;;;5084050;28;20282;-73
2021/05/28 02:40:46;;;;;;;15.63;9.43;;;5.70;99.90;;;;;;5093416;28;20199;-72
2021/05/28 02:43:14;;;;;;;11.10;8.77;;;5.70;99.90;;;;;;5082227;28;20226;-73
2021/05/28 02:45:42;;;;;;;10.63;8.30;;;5.70;99.90;;;;;;5089603;28;20256;-71
2021/05/28 02:48:10;;;;;;;10.90;8.63;;;5.70;99.90;;;;;;5086164;28;20231;-73
2021/05/28 02:50:39;;;;;;;14.00;9.17;;;5.60;99.90;;;;;;5082885;28;20245;-73
2021/05/28 02:53:10;;;;;;;12.63;9.67;;;5.60;99.90;;;;;;5085840;28;20203;-73
2021/05/28 02:55:38;;;;;;;15.13;8.80;;;5.60;99.90;;;;;;5077759;28;20192;-73
2021/05/28 02:58:08;;;;;;;14.07;9.10;;;5.60;99.90;;;;;;5084467;28;20569;-73
2021/05/28 03:00:37;;;;;;;15.07;8.30;;;5.50;99.90;;;;;;5090115;28;20255;-73
2021/05/28 03:03:05;;;;;;;11.63;7.83;;;5.50;99.90;;;;;;5085457;28;20184;-73
2021/05/28 03:05:34;;;;;;;9.90;8.00;;;5.40;99.90;;;;;;5081230;28;20194;-73
2021/05/28 03:08:03;;;;;;;9.70;7.53;;;5.40;99.90;;;;;;5087700;28;20272;-73
2021/05/28 03:10:31;;;;;;;11.57;8.50;;;5.40;99.90;;;;;;5096555;28;20195;-73
2021/05/28 03:12:59;;;;;;;10.90;7.90;;;5.40;99.90;;;;;;5081466;28;20239;-72
2021/05/28 03:15:26;;;;;;;9.67;8.03;;;5.40;99.90;;;;;;5095972;28;20191;-73
2021/05/28 03:17:54;;;;;;;14.53;8.40;;;5.40;99.90;;;;;;5087245;28;20226;-72
2021/05/28 03:20:28;;;;;;;15.00;9.73;;;5.40;99.90;;;;;;5087285;28;20199;-73
2021/05/28 03:22:56;;;;;;;12.73;9.30;;;5.40;99.90;;;;;;5086855;28;20274;-73
2021/05/28 03:25:25;;;;;;;12.33;8.70;;;5.40;99.90;;;;;;5087392;28;20278;-72
2021/05/28 03:27:53;;;;;;;13.03;8.97;;;5.40;99.90;;;;;;5099441;28;20214;-73
2021/05/28 03:30:21;;;;;;;12.57;9.10;;;5.40;99.90;;;;;;5093833;28;20196;-72
2021/05/28 03:32:49;;;;;;;10.70;8.53;;;5.50;99.90;;;;;;5086664;28;20709;-73
2021/05/28 03:35:17;;;;;;;11.80;9.37;;;5.40;99.90;;;;;;5090464;28;20650;-73
2021/05/28 03:37:45;;;;;;;13.13;9.30;;;5.40;99.90;;;;;;5088902;28;20618;-71
2021/05/28 03:40:13;;;;;;;17.53;10.50;;;5.40;99.90;;;;;;5088814;28;20217;-73
2021/05/28 03:42:42;;;;;;;15.23;9.27;;;5.40;99.90;;;;;;5092063;28;20199;-72
2021/05/28 03:45:11;;;;;;;12.40;8.80;;;5.40;99.90;;;;;;5092228;28;20184;-73
2021/05/28 03:47:39;;;;;;;14.77;9.70;;;5.30;99.90;;;;;;5097556;28;20286;-73
2021/05/28 03:50:08;;;;;;;17.77;10.27;;;5.30;99.90;;;;;;5088237;28;20208;-73
2021/05/28 03:52:35;;;;;;;15.67;10.23;;;5.40;99.90;;;;;;5090149;28;20223;-73
2021/05/28 03:55:05;;;;;;;17.07;10.10;;;5.40;99.90;;;;;;5087014;28;20221;-72
2021/05/28 03:57:33;;;;;;;17.60;10.53;;;5.30;99.90;;;;;;5089891;28;20230;-73
2021/05/28 04:00:02;;;;;;;18.53;11.23;;;5.40;99.90;;;;;;5093936;28;20191;-73
2021/05/28 04:02:30;;;;;;;18.97;11.10;;;5.40;99.90;;;;;;5075807;28;20230;-73
2021/05/28 04:04:58;;;;;;;16.50;11.07;;;5.50;99.90;;;;;;5083903;28;20191;-73
2021/05/28 04:07:28;;;;;;;17.10;11.17;;;5.50;99.90;;;;;;5083779;28;20290;-73
2021/05/28 04:09:56;;;;;;;13.07;10.10;;;5.50;99.90;;;;;;5089254;28;20270;-73
2021/05/28 04:12:40;;;;;;;18.87;9.70;;;5.50;99.90;;;;;;5071496;28;20183;-73
2021/05/28 04:15:11;;;;;;;16.57;10.60;;;5.50;99.90;;;;;;5087411;28;20302;-73
2021/05/28 04:17:39;;;;;;;18.30;11.50;;;5.60;99.90;;;;;;5089824;28;20227;-73
2021/05/28 04:20:08;;;;;;;19.37;11.47;;;5.70;99.90;;;;;;5086480;28;20191;-73
2021/05/28 04:22:36;;;;;;;16.93;11.27;;;5.80;99.90;;;;;;5086947;28;20310;-73
2021/05/28 04:25:05;;;;;;;19.80;11.77;;;5.80;99.90;;;;;;5085154;28;20853;-73
2021/05/28 04:27:33;;;;;;;20.30;11.67;;;5.90;99.90;;;;;;5089183;28;20190;-73
2021/05/28 04:30:01;;;;;;;25.00;11.63;;;5.90;99.90;;;;;;5089905;28;20191;-73
2021/05/28 04:32:30;;;;;;;16.47;11.27;;;6.00;99.90;;;;;;5089015;28;20694;-73
2021/05/28 04:34:58;;;;;;;21.37;11.70;;;6.10;99.90;;;;;;5088766;28;20306;-73
2021/05/28 04:37:26;;;;;;;21.07;11.77;;;6.10;99.90;;;;;;5083028;28;20222;-73
2021/05/28 04:39:54;;;;;;;30.33;14.17;;;6.20;99.90;;;;;;5082698;28;20807;-73
2021/05/28 04:42:22;;;;;;;30.70;14.43;;;6.30;99.90;;;;;;5085433;28;20249;-72
2021/05/28 04:44:50;;;;;;;24.37;14.10;;;6.40;99.90;;;;;;5089430;28;20219;-73
2021/05/28 04:47:20;;;;;;;25.77;14.47;;;6.40;99.90;;;;;;5092232;28;20294;-73
2021/05/28 04:49:48;;;;;;;20.97;13.33;;;6.50;99.90;;;;;;5089662;28;20281;-70
2021/05/28 04:52:17;;;;;;;28.23;14.77;;;6.50;99.90;;;;;;5076611;28;20640;-73
2021/05/28 04:54:45;;;;;;;30.20;15.47;;;6.50;99.90;;;;;;5081965;28;20298;-72
2021/05/28 04:57:13;;;;;;;27.53;15.90;;;6.50;99.90;;;;;;5088087;28;20194;-73
2021/05/28 04:59:41;;;;;;;26.67;15.97;;;6.60;99.90;;;;;;5084401;28;20595;-73
2021/05/28 05:02:08;;;;;;;31.00;17.30;;;6.70;99.90;;;;;;5082528;28;21548;-73
2021/05/28 05:04:36;;;;;;;27.30;16.70;;;6.80;99.90;;;;;;5088395;28;20192;-73
2021/05/28 05:07:05;;;;;;;28.17;16.70;;;6.80;99.90;;;;;;5087945;28;20269;-72
2021/05/28 05:09:33;;;;;;;26.40;16.40;;;6.90;99.90;;;;;;5092588;28;20282;-73
2021/05/28 05:12:01;;;;;;;24.00;15.40;;;7.00;99.90;;;;;;5090437;28;20270;-72
2021/05/28 05:14:29;;;;;;;24.43;14.80;;;7.10;99.90;;;;;;5086127;28;20203;-73
2021/05/28 05:16:57;;;;;;;31.73;16.50;;;7.20;99.90;;;;;;5086808;28;20775;-73
2021/05/28 05:19:24;;;;;;;26.17;15.63;;;7.30;99.90;;;;;;5090514;28;20286;-73
2021/05/28 05:21:53;;;;;;;25.37;16.37;;;7.30;99.90;;;;;;5092429;28;20266;-73
2021/05/28 05:24:21;;;;;;;33.77;18.13;;;7.40;99.90;;;;;;5117574;27;20226;-73
2021/05/28 05:26:49;;;;;;;26.10;16.90;;;7.50;99.90;;;;;;5086125;28;20287;-70
2021/05/28 05:29:17;;;;;;;27.60;15.67;;;7.70;99.90;;;;;;5076814;28;20216;-73
2021/05/28 05:31:45;;;;;;;29.23;17.47;;;7.90;99.90;;;;;;5085070;28;20261;-73
2021/05/28 05:34:13;;;;;;;32.07;16.40;;;8.10;99.90;;;;;;5090204;28;20314;-73
2021/05/28 05:36:41;;;;;;;25.13;15.17;;;8.20;99.90;;;;;;5087357;28;20291;-72
2021/05/28 05:39:09;;;;;;;27.03;15.87;;;8.40;99.90;;;;;;5082559;28;20222;-73
2021/05/28 05:41:38;;;;;;;29.87;17.53;;;8.50;99.90;;;;;;5091031;28;20221;-71
2021/05/28 05:44:06;;;;;;;28.07;18.87;;;8.60;99.90;;;;;;5087195;28;20219;-73
2021/05/28 05:46:35;;;;;;;28.70;16.97;;;8.80;99.90;;;;;;5077428;28;20688;-72
2021/05/28 05:49:03;;;;;;;21.47;15.10;;;8.90;99.90;;;;;;5075193;28;20216;-73
2021/05/28 05:51:31;;;;;;;21.80;14.53;;;9.10;99.90;;;;;;5087574;28;20183;-73
2021/05/28 05:53:59;;;;;;;24.60;14.93;;;9.20;99.90;;;;;;5082368;28;20773;-73
2021/05/28 05:56:26;;;;;;;27.80;15.27;;;9.30;99.90;;;;;;5087111;28;20219;-73
2021/05/28 05:58:55;;;;;;;24.20;15.27;;;9.50;99.90;;;;;;5087395;28;20300;-73
2021/05/28 06:01:23;;;;;;;22.47;16.33;;;9.70;99.90;;;;;;5082517;28;20283;-72
2021/05/28 06:03:51;;;;;;;28.37;17.40;;;9.90;99.90;;;;;;5089467;28;20187;-70
2021/05/28 06:06:19;;;;;;;27.47;16.43;;;10.10;99.90;;;;;;5089630;28;20566;-73
2021/05/28 06:08:47;;;;;;;27.30;16.37;;;10.30;99.90;;;;;;5087794;28;20230;-74
2021/05/28 06:11:15;;;;;;;35.97;20.40;;;10.50;99.90;;;;;;5082377;28;20222;-73
2021/05/28 06:13:43;;;;;;;31.30;18.60;;;10.80;99.90;;;;;;5084081;28;20210;-73
2021/05/28 06:16:12;;;;;;;32.03;17.70;;;11.10;99.90;;;;;;5088932;28;20191;-73
2021/05/28 06:18:39;;;;;;;27.47;16.20;;;11.60;99.90;;;;;;5093796;28;20705;-73
2021/05/28 06:21:07;;;;;;;27.23;15.50;;;11.70;99.90;;;;;;5088605;28;20219;-72
2021/05/28 06:23:35;;;;;;;25.83;15.37;;;11.60;99.90;;;;;;5082353;28;20269;-72
2021/05/28 06:26:03;;;;;;;23.33;14.40;;;11.70;99.90;;;;;;5087979;28;20294;-72
2021/05/28 06:28:31;;;;;;;25.07;15.17;;;11.90;99.90;;;;;;5087631;28;20436;-71
2021/05/28 06:30:59;;;;;;;27.77;15.27;;;12.20;99.90;;;;;;5086501;28;20241;-72
2021/05/28 06:33:28;;;;;;;23.77;14.50;;;12.50;99.90;;;;;;5080382;28;20188;-72
2021/05/28 06:35:56;;;;;;;21.70;13.57;;;12.70;99.90;;;;;;5080021;28;20257;-72
2021/05/28 06:38:24;;;;;;;28.00;14.53;;;12.60;99.90;;;;;;5082531;28;20237;-72
2021/05/28 06:40:52;;;;;;;20.43;14.00;;;12.70;99.90;;;;;;5079045;28;20192;-72
2021/05/28 06:43:20;;;;;;;21.67;13.57;;;12.90;99.90;;;;;;5076757;28;20192;-72
2021/05/28 06:45:48;;;;;;;19.20;13.03;;;13.00;99.90;;;;;;5082972;28;20211;-72
2021/05/28 06:48:16;;;;;;;18.87;13.00;;;13.10;99.90;;;;;;5086304;28;20658;-73
2021/05/28 06:50:45;;;;;;;20.23;12.40;;;12.90;99.90;;;;;;5086217;28;20222;-73
2021/05/28 06:53:13;;;;;;;18.23;11.43;;;13.00;99.90;;;;;;5082718;28;20722;-73
2021/05/28 06:55:41;;;;;;;17.03;11.47;;;13.20;99.90;;;;;;5079844;28;20287;-73
2021/05/28 06:58:10;;;;;;;21.17;11.40;;;13.60;99.90;;;;;;5084364;28;20192;-73
2021/05/28 07:00:38;;;;;;;18.40;11.17;;;13.70;99.90;;;;;;5085746;28;20201;-73
2021/05/28 07:03:06;;;;;;;14.33;10.00;;;13.80;99.90;;;;;;5088702;28;20260;-72
2021/05/28 07:05:34;;;;;;;14.20;10.50;;;13.70;99.90;;;;;;5082135;28;21110;-72
2021/05/28 07:08:03;;;;;;;14.20;9.80;;;13.50;99.90;;;;;;5088035;28;20199;-73
2021/05/28 07:10:31;;;;;;;11.77;9.10;;;13.70;99.90;;;;;;5084225;28;20286;-72
2021/05/28 07:13:01;;;;;;;11.87;9.07;;;13.90;99.90;;;;;;5085717;28;20278;-74
2021/05/28 07:15:29;;;;;;;18.93;8.93;;;14.20;99.90;;;;;;5076558;28;20299;-73
2021/05/28 07:17:57;;;;;;;14.10;9.03;;;14.50;99.90;;;;;;5086406;28;20287;-73
2021/05/28 07:20:25;;;;;;;10.43;8.47;;;15.00;99.90;;;;;;5082959;28;20942;-73
2021/05/28 07:22:53;;;;;;;14.90;8.10;;;15.40;99.90;;;;;;5086026;28;20218;-73
2021/05/28 07:25:22;;;;;;;12.97;8.30;;;15.50;99.90;;;;;;5085582;28;20247;-73
2021/05/28 07:27:50;;;;;;;11.40;7.20;;;15.50;99.90;;;;;;5087621;28;20235;-73
2021/05/28 07:30:21;;;;;;;14.37;7.10;;;15.20;99.90;;;;;;5084300;28;20228;-73
2021/05/28 07:32:48;;;;;;;10.73;6.80;;;14.90;99.90;;;;;;5082821;28;20859;-73
2021/05/28 07:35:17;;;;;;;13.50;7.63;;;14.70;99.90;;;;;;5083649;28;20247;-74
2021/05/28 07:37:45;;;;;;;13.87;6.47;;;14.70;99.90;;;;;;5086303;28;20290;-73
2021/05/28 07:40:13;;;;;;;11.20;5.63;;;14.80;99.90;;;;;;5085050;28;20206;-72
2021/05/28 07:42:42;;;;;;;10.93;7.00;;;15.20;99.90;;;;;;5086076;28;20216;-73
2021/05/28 07:45:11;;;;;;;14.20;7.93;;;14.90;99.90;;;;;;5086953;28;20185;-73
2021/05/28 07:47:39;;;;;;;12.17;8.10;;;14.70;99.90;;;;;;5084641;28;20249;-72
2021/05/28 07:50:09;;;;;;;15.97;9.13;;;14.60;99.90;;;;;;5085249;28;20278;-74
2021/05/28 07:52:37;;;;;;;16.70;7.70;;;14.40;99.90;;;;;;5084810;28;20810;-72
2021/05/28 07:55:06;;;;;;;14.30;9.10;;;14.40;99.90;;;;;;5086103;28;20294;-73
2021/05/28 07:57:34;;;;;;;13.03;8.40;;;14.40;99.90;;;;;;5085313;28;20256;-73
2021/05/28 08:00:05;;;;;;;12.93;8.40;;;14.50;99.90;;;;;;5071601;28;20331;-73
2021/05/28 08:02:34;;;;;;;12.37;7.57;;;14.60;99.90;;;;;;5085330;28;20807;-73
2021/05/28 08:05:02;;;;;;;10.53;7.50;;;14.60;99.90;;;;;;5084208;28;20215;-73
2021/05/28 08:07:30;;;;;;;13.57;8.07;;;14.70;99.90;;;;;;5086441;28;20207;-72
2021/05/28 08:09:58;;;;;;;15.20;7.80;;;14.70;99.90;;;;;;5085039;28;20307;-72
2021/05/28 08:12:26;;;;;;;12.33;7.67;;;14.70;99.90;;;;;;5083113;28;20274;-73
2021/05/28 08:14:54;;;;;;;14.10;8.70;;;14.70;99.90;;;;;;5085959;28;20280;-73
2021/05/28 08:17:22;;;;;;;13.37;7.87;;;14.60;99.90;;;;;;5082449;28;20740;-73
2021/05/28 08:19:50;;;;;;;11.63;7.57;;;14.60;99.90;;;;;;5073743;28;20234;-73
2021/05/28 08:22:18;;;;;;;15.27;8.00;;;14.80;99.90;;;;;;5058388;28;20206;-74
2021/05/28 08:24:46;;;;;;;12.80;7.70;;;15.10;99.90;;;;;;5087671;28;20221;-73
2021/05/28 08:27:16;;;;;;;11.93;7.63;;;15.30;99.90;;;;;;5088780;28;20222;-73
2021/05/28 08:29:44;;;;;;;14.77;7.83;;;15.20;99.90;;;;;;5086616;28;20223;-74
2021/05/28 08:32:12;;;;;;;13.63;7.87;;;15.20;99.90;;;;;;5088651;28;20231;-73
2021/05/28 08:34:41;;;;;;;12.57;7.10;;;15.00;99.90;;;;;;5086684;28;20225;-75
2021/05/28 08:37:09;;;;;;;17.23;8.30;;;15.30;99.90;;;;;;5088303;28;20731;-73
2021/05/28 08:39:37;;;;;;;15.27;8.10;;;15.50;99.90;;;;;;5086600;28;20234;-74
2021/05/28 08:42:09;;;;;;;13.53;7.87;;;15.70;99.90;;;;;;5082992;28;20196;-73
2021/05/28 08:44:37;;;;;;;12.37;7.73;;;16.30;99.90;;;;;;5079347;28;20252;-74
2021/05/28 08:47:05;;;;;;;12.53;7.20;;;16.50;99.90;;;;;;5085239;28;20195;-74
2021/05/28 08:49:33;;;;;;;9.07;6.63;;;16.60;99.90;;;;;;5083253;28;20315;-73
2021/05/28 08:52:02;;;;;;;14.60;7.50;;;16.40;99.90;;;;;;5085597;28;20230;-73
2021/05/28 08:54:31;;;;;;;9.07;6.57;;;16.20;99.90;;;;;;5085296;28;20204;-74
2021/05/28 08:56:59;;;;;;;12.10;7.13;;;16.50;99.90;;;;;;5085180;28;20183;-74
2021/05/28 08:59:27;;;;;;;9.50;5.90;;;16.50;99.90;;;;;;5084035;28;20183;-74
2021/05/28 09:01:55;;;;;;;8.63;6.83;;;16.60;99.90;;;;;;5081053;28;20220;-74
2021/05/28 09:04:23;;;;;;;10.23;7.03;;;16.60;99.90;;;;;;5086037;28;20286;-75
2021/05/28 09:06:51;;;;;;;9.93;6.57;;;17.40;99.90;;;;;;5085380;28;20262;-75
2021/05/28 09:09:23;;;;;;;6.77;5.30;;;18.70;99.90;;;;;;5076670;28;20244;-75
2021/05/28 09:11:53;;;;;;;9.90;6.10;;;19.90;99.90;;;;;;5084146;28;20718;-75
2021/05/28 09:14:35;;;;;;;9.90;5.93;;;20.40;99.90;;;;;;5084636;28;20292;-75
2021/05/28 09:17:05;;;;;;;6.93;6.10;;;19.90;99.90;;;;;;5080164;28;20568;-75
2021/05/28 09:19:34;;;;;;;8.67;5.47;;;19.70;99.90;;;;;;5084486;28;20200;-75
2021/05/28 09:22:06;;;;;;;9.53;5.90;;;20.10;99.90;;;;;;5081697;28;20201;-75
2021/05/28 09:24:37;;;;;;;12.23;5.07;;;20.80;99.90;;;;;;5083098;28;20258;-76
2021/05/28 09:27:23;;;;;;;7.67;5.07;;;21.30;99.90;;;;;;5085500;28;20200;-75
2021/05/28 09:30:04;;;;;;;11.77;5.50;;;21.60;99.90;;;;;;5084150;28;20326;-75
2021/05/28 09:32:33;;;;;;;5.90;5.17;;;21.20;99.90;;;;;;5082520;28;20958;-76
2021/05/28 09:35:01;;;;;;;10.77;5.33;;;21.00;99.90;;;;;;5082036;28;20297;-75
2021/05/28 09:37:42;;;;;;;9.73;5.80;;;20.80;99.90;;;;;;5082487;28;20244;-75
2021/05/28 09:40:14;;;;;;;8.37;4.90;;;20.80;99.90;;;;;;5081897;28;20230;-75
2021/05/28 09:43:03;;;;;;;7.03;4.93;;;21.20;99.90;;;;;;5081896;28;20199;-74
2021/05/28 09:45:35;;;;;;;7.40;5.20;;;20.80;99.90;;;;;;5076596;28;20289;-74
2021/05/28 09:48:04;;;;;;;11.10;4.90;;;20.40;99.90;;;;;;5085859;28;20185;-75
2021/05/28 09:50:33;;;;;;;7.67;5.17;;;20.20;99.90;;;;;;5080601;28;20641;-74
2021/05/28 09:53:06;;;;;;;5.40;4.40;;;20.40;99.90;;;;;;5083933;28;20196;-76
2021/05/28 09:55:36;;;;;;;7.73;4.57;;;20.80;99.90;;;;;;5083227;28;20221;-76
2021/05/28 09:58:03;;;;;;;10.13;5.20;;;21.20;99.90;;;;;;5081714;28;20375;-75
2021/05/28 10:00:33;;;;;;;6.87;4.20;;;21.60;99.90;;;;;;5083604;28;20199;-75
2021/05/28 10:03:13;;;;;;;6.23;5.33;;;21.70;99.90;;;;;;5083480;28;20273;-76
2021/05/28 10:05:46;;;;;;;9.13;5.03;;;21.90;99.90;;;;;;5081338;28;20700;-73
2021/05/28 10:08:15;;;;;;;6.47;4.97;;;21.50;99.90;;;;;;5084026;28;20740;-77
2021/05/28 10:10:46;;;;;;;6.67;5.57;;;21.50;99.90;;;;;;5080924;28;20224;-76
2021/05/28 10:13:15;;;;;;;5.87;4.73;;;21.60;99.90;;;;;;5078942;28;20291;-75
2021/05/28 10:15:45;;;;;;;7.60;5.07;;;22.10;99.90;;;;;;5076847;28;20206;-75
2021/05/28 10:18:14;;;;;;;9.87;5.03;;;22.20;99.90;;;;;;5080845;28;20182;-74
2021/05/28 10:20:45;;;;;;;8.40;4.87;;;22.10;99.90;;;;;;5082524;28;20230;-77
2021/05/28 10:23:15;;;;;;;8.80;4.90;;;21.90;99.90;;;;;;5083331;28;20256;-74
2021/05/28 10:25:45;;;;;;;6.87;4.90;;;21.80;99.90;;;;;;5084198;28;20266;-73
2021/05/28 10:28:17;;;;;;;9.60;4.63;;;21.50;99.90;;;;;;5081354;28;20189;-73
2021/05/28 10:30:46;;;;;;;8.13;5.20;;;21.10;99.90;;;;;;5083887;28;20708;-74
2021/05/28 10:33:17;;;;;;;5.00;4.50;;;21.10;99.90;;;;;;5085152;28;20199;-73
2021/05/28 10:35:51;;;;;;;7.10;4.73;;;21.20;99.90;;;;;;5086128;28;20655;-76
2021/05/28 10:38:44;;;;;;;4.90;4.00;;;21.10;99.90;;;;;;5081530;28;20663;-74
2021/05/28 10:41:44;;;;;;;7.03;4.80;;;21.60;99.90;;;;;;5084235;28;20217;-73
2021/05/28 10:44:19;;;;;;;8.13;4.40;;;21.70;99.90;;;;;;5083843;28;20198;-74
2021/05/28 10:47:19;;;;;;;4.30;3.90;;;22.10;99.90;;;;;;5083187;28;20242;-73
2021/05/28 10:49:47;;;;;;;8.13;4.73;;;22.10;99.90;;;;;;5085676;28;20289;-75
2021/05/28 10:52:31;;;;;;;5.80;4.80;;;22.00;99.90;;;;;;5081782;28;20192;-75
2021/05/28 10:55:02;;;;;;;7.00;5.07;;;21.70;99.90;;;;;;5080757;28;20201;-76
2021/05/28 10:57:54;;;;;;;6.03;4.63;;;21.40;99.90;;;;;;5080767;28;20208;-74
2021/05/28 11:00:30;;;;;;;8.27;4.83;;;21.50;99.90;;;;;;5084589;28;20249;-74
2021/05/28 11:03:13;;;;;;;6.43;4.20;;;21.60;99.90;;;;;;5085426;28;20188;-75
2021/05/28 11:05:48;;;;;;;9.97;4.33;;;21.70;99.90;;;;;;5083491;28;20595;-75
2021/05/28 11:08:44;;;;;;;5.67;5.10;;;21.60;99.90;;;;;;5079746;28;20193;-76
2021/05/28 11:11:58;;;;;;;6.67;4.83;;;21.70;99.90;;;;;;5080847;28;20220;-75
2021/05/28 11:14:27;;;;;;;4.67;4.20;;;21.70;99.90;;;;;;5082498;28;20200;-73
2021/05/28 11:17:17;;;;;;;8.70;4.83;;;21.60;99.90;;;;;;5081402;28;20276;-76
2021/05/28 11:19:56;;;;;;;6.37;5.17;;;21.10;99.90;;;;;;5082735;28;20289;-76
2021/05/28 11:22:37;;;;;;;7.13;5.03;;;20.60;99.90;;;;;;5083379;28;20257;-77
2021/05/28 11:25:08;;;;;;;6.77;5.13;;;20.30;99.90;;;;;;5083537;28;20323;-75
2021/05/28 11:27:56;;;;;;;9.63;5.27;;;20.20;99.90;;;;;;5077623;28;20226;-76
2021/05/28 11:30:38;;;;;;;8.80;4.80;;;20.30;99.90;;;;;;5083824;28;20191;-75
2021/05/28 11:33:07;;;;;;;7.43;5.10;;;20.10;99.90;;;;;;5081182;28;20323;-76
2021/05/28 11:35:42;;;;;;;9.77;5.53;;;19.90;99.90;;;;;;5079563;28;20246;-76
2021/05/28 11:38:11;;;;;;;5.93;4.77;;;20.00;99.90;;;;;;5080435;28;20203;-76
2021/05/28 11:40:41;;;;;;;9.33;5.23;;;20.40;99.90;;;;;;5087639;28;20230;-75
2021/05/28 11:43:11;;;;;;;5.03;4.30;;;20.50;99.90;;;;;;5087235;28;20229;-77
2021/05/28 11:45:41;;;;;;;8.70;4.87;;;20.80;99.90;;;;;;5085551;28;20222;-75
2021/05/28 11:48:13;;;;;;;8.60;4.57;;;20.80;99.90;;;;;;5087735;28;20199;-76
2021/05/28 11:50:46;;;;;;;5.77;5.07;;;20.80;99.90;;;;;;5086347;28;20282;-75
2021/05/28 11:53:14;;;;;;;4.83;4.27;;;21.00;99.90;;;;;;5084408;28;20611;-76
2021/05/28 11:55:47;;;;;;;7.03;4.60;;;20.80;99.90;;;;;;5086193;28;20303;-76
2021/05/28 11:58:15;;;;;;;7.00;4.77;;;20.60;99.90;;;;;;5080876;28;20282;-75
2021/05/28 12:00:45;;;;;;;9.80;4.60;;;20.40;99.90;;;;;;5090164;28;20643;-75
2021/05/28 12:03:14;;;;;;;5.63;4.03;;;20.50;99.90;;;;;;5087359;28;20195;-76
2021/05/28 12:05:43;;;;;;;4.93;4.43;;;20.80;99.90;;;;;;5083566;28;20198;-76
2021/05/28 12:08:22;;;;;;;5.43;4.47;;;21.10;99.90;;;;;;5081474;28;20278;-75
2021/05/28 12:10:51;;;;;;;7.60;4.33;;;21.20;99.90;;;;;;5083999;28;20196;-73
2021/05/28 12:13:19;;;;;;;5.93;4.87;;;21.20;99.90;;;;;;5084568;28;20219;-76
2021/05/28 12:15:50;;;;;;;7.83;5.03;;;20.70;99.90;;;;;;5086872;28;20226;-75
2021/05/28 12:18:21;;;;;;;10.27;4.70;;;20.70;99.90;;;;;;5082986;28;20601;-77
2021/05/28 12:20:51;;;;;;;7.27;4.57;;;20.70;99.90;;;;;;5082536;28;20199;-76
2021/05/28 12:23:22;;;;;;;6.60;5.20;;;20.80;99.90;;;;;;5087631;28;20227;-76
2021/05/28 12:25:56;;;;;;;6.67;4.40;;;20.80;99.90;;;;;;5076955;28;20266;-76
2021/05/28 12:28:29;;;;;;;5.63;4.97;;;20.70;99.90;;;;;;5083901;28;20732;-76
2021/05/28 12:31:01;;;;;;;8.53;5.07;;;20.80;99.90;;;;;;5086897;28;20373;-76
2021/05/28 12:33:31;;;;;;;7.20;5.33;;;20.60;99.90;;;;;;5088426;28;20720;-77
2021/05/28 12:36:02;;;;;;;10.43;4.93;;;20.50;99.90;;;;;;5086915;28;20317;-76
2021/05/28 12:38:36;;;;;;;7.17;4.90;;;20.40;99.90;;;;;;5082920;28;20230;-76
2021/05/28 12:41:05;;;;;;;6.67;4.60;;;20.30;99.90;;;;;;5076760;28;20736;-76
2021/05/28 12:43:34;;;;;;;9.27;5.27;;;20.10;99.90;;;;;;5085732;28;20227;-75
2021/05/28 12:46:03;;;;;;;7.13;4.40;;;19.70;99.90;;;;;;5087074;28;20190;-76
2021/05/28 12:48:42;;;;;;;7.23;4.37;;;19.50;99.90;;;;;;5082915;28;20843;-76
2021/05/28 12:51:13;;;;;;;8.97;4.37;;;19.60;99.90;;;;;;5088731;28;20218;-75
2021/05/28 12:53:42;;;;;;;6.10;4.30;;;19.80;99.90;;;;;;5082133;28;20230;-77
2021/05/28 12:56:19;;;;;;;4.30;3.90;;;20.00;99.90;;;;;;5088747;28;20278;-74